Time;durP1;ratioP1;P1;durP2;ratioP2;P2;SDS_P1;SDS_P2;PMS_P1;PMS_P2;Temp;Humidity;BMP_temperature;BMP_pressure;BME280_temperature;BME280_humidity;BME280_pressure;Samples;Min_cycle;Max_cycle;Signal;HPM_P1;HPM_P2
2023/02/15 00:02:02;;;;;;;42.63;29.42;;;;;;;3.49;100.00;102817.22;5222999;28;20144;-70
2023/02/15 00:04:46;;;;;;;42.72;28.15;;;;;;;3.48;100.00;102819.81;5226501;28;20021;-71
2023/02/15 00:07:18;;;;;;;41.28;27.30;;;;;;;3.47;100.00;102818.97;5224724;28;20033;-70
2023/02/15 00:09:50;;;;;;;43.22;29.27;;;;;;;3.43;100.00;102822.53;5223582;28;20032;-70
2023/02/15 00:12:21;;;;;;;48.75;30.77;;;;;;;3.45;100.00;102815.56;5222687;28;20025;-70
2023/02/15 00:14:52;;;;;;;41.75;28.55;;;;;;;3.36;100.00;102810.59;5225783;28;20040;-70
2023/02/15 00:17:24;;;;;;;44.70;28.30;;;;;;;3.33;100.00;102810.66;5227474;28;20032;-70
2023/02/15 00:19:55;;;;;;;40.58;27.45;;;;;;;3.31;100.00;102809.84;5219325;28;20164;-70
2023/02/15 00:22:26;;;;;;;40.63;27.65;;;;;;;3.27;100.00;102805.63;5220044;28;20408;-70
2023/02/15 00:24:57;;;;;;;46.60;29.55;;;;;;;3.25;100.00;102803.06;5221874;28;20034;-70
2023/02/15 00:27:29;;;;;;;42.63;28.38;;;;;;;3.24;100.00;102806.53;5207670;28;20037;-70
2023/02/15 00:30:00;;;;;;;42.08;28.60;;;;;;;3.22;100.00;102803.16;5224457;28;20071;-70
2023/02/15 00:32:32;;;;;;;41.88;28.45;;;;;;;3.17;100.00;102800.66;5224288;28;20113;-70
2023/02/15 00:35:03;;;;;;;38.85;26.45;;;;;;;3.16;100.00;102798.09;5222527;28;20303;-70
2023/02/15 00:37:35;;;;;;;40.80;27.80;;;;;;;3.12;100.00;102799.06;5218292;28;20025;-70
2023/02/15 00:40:06;;;;;;;39.22;26.80;;;;;;;3.11;100.00;102790.44;5225970;28;20041;-70
2023/02/15 00:42:38;;;;;;;36.58;27.17;;;;;;;3.03;100.00;102787.19;5222127;28;20030;-70
2023/02/15 00:45:09;;;;;;;44.45;27.90;;;;;;;3.06;100.00;102787.09;5228472;28;20029;-70
2023/02/15 00:47:40;;;;;;;39.60;27.73;;;;;;;3.03;100.00;102786.28;5221130;28;20479;-70
2023/02/15 00:50:12;;;;;;;41.25;28.00;;;;;;;2.96;100.00;102782.16;5226915;28;20021;-70
2023/02/15 00:52:43;;;;;;;37.42;26.63;;;;;;;3.01;100.00;102778.56;5226648;28;20033;-71
2023/02/15 00:55:14;;;;;;;39.80;27.20;;;;;;;2.97;100.00;102787.28;5223700;28;20056;-70
2023/02/15 00:57:46;;;;;;;38.60;26.83;;;;;;;2.92;100.00;102781.38;5217946;28;20121;-70
2023/02/15 01:00:17;;;;;;;40.53;27.40;;;;;;;2.84;100.00;102771.19;5224340;28;20025;-71
2023/02/15 01:02:48;;;;;;;39.95;27.85;;;;;;;2.87;100.00;102763.31;5222682;28;20465;-70
2023/02/15 01:05:19;;;;;;;42.42;28.75;;;;;;;2.86;100.00;102755.63;5223820;28;20039;-70
2023/02/15 01:07:51;;;;;;;39.35;28.15;;;;;;;2.81;100.00;102753.13;5226554;28;20273;-70
2023/02/15 01:10:22;;;;;;;43.00;29.02;;;;;;;2.79;100.00;102754.88;5220983;28;20923;-70
2023/02/15 01:12:55;;;;;;;44.45;28.92;;;;;;;2.77;100.00;102767.03;5223575;28;20020;-70
2023/02/15 01:15:26;;;;;;;39.40;27.70;;;;;;;2.79;100.00;102767.81;5220819;28;20116;-70
2023/02/15 01:17:57;;;;;;;37.08;26.05;;;;;;;2.71;100.00;102763.72;5218209;28;20105;-70
2023/02/15 01:20:29;;;;;;;41.60;28.52;;;;;;;2.67;100.00;102758.59;5223456;28;20029;-70
2023/02/15 01:23:01;;;;;;;42.40;27.52;;;;;;;2.65;100.00;102755.19;5225231;28;20025;-70
2023/02/15 01:25:34;;;;;;;40.17;27.95;;;;;;;2.70;100.00;102752.50;5207694;28;20032;-70
2023/02/15 01:28:05;;;;;;;36.38;26.55;;;;;;;2.71;100.00;102753.34;5223096;28;20025;-70
2023/02/15 01:30:36;;;;;;;37.35;26.08;;;;;;;2.64;100.00;102747.44;5222708;28;20486;-70
2023/02/15 01:33:17;;;;;;;38.75;27.17;;;;;;;2.56;100.00;102737.25;5221877;28;20133;-70
2023/02/15 01:35:48;;;;;;;39.50;26.85;;;;;;;2.54;100.00;102746.81;5208210;28;20061;-71
2023/02/15 01:38:19;;;;;;;39.28;25.20;;;;;;;2.55;100.00;102740.75;5219777;28;20733;-70
2023/02/15 01:41:19;;;;;;;40.90;26.60;;;;;;;2.65;100.00;102728.44;5220596;28;20112;-70
2023/02/15 01:43:48;;;;;;;41.38;26.38;;;;;;;2.55;100.00;102727.81;5222233;28;20045;-70
2023/02/15 01:46:25;;;;;;;35.05;24.90;;;;;;;2.58;100.00;102738.09;5222512;28;20076;-70
2023/02/15 01:49:05;;;;;;;37.17;25.88;;;;;;;2.53;100.00;102736.47;5220880;28;20021;-70
2023/02/15 01:51:40;;;;;;;38.83;25.40;;;;;;;2.39;100.00;102724.69;5226625;28;20069;-71
2023/02/15 01:54:29;;;;;;;40.83;27.23;;;;;;;2.54;100.00;102725.22;5219879;28;20129;-71
2023/02/15 01:57:04;;;;;;;37.35;26.98;;;;;;;2.40;100.00;102720.38;5202899;28;20490;-71
2023/02/15 01:59:39;;;;;;;39.75;25.73;;;;;;;2.41;100.00;102732.41;5221468;28;20427;-70
2023/02/15 02:02:13;;;;;;;35.75;25.35;;;;;;;2.43;100.00;102733.25;5223617;28;20032;-70
2023/02/15 02:04:50;;;;;;;35.97;25.80;;;;;;;2.43;100.00;102726.31;5226158;28;20072;-71
2023/02/15 02:07:26;;;;;;;37.83;26.45;;;;;;;2.34;100.00;102723.06;5224669;28;20029;-71
2023/02/15 02:09:58;;;;;;;38.40;26.40;;;;;;;2.29;100.00;102722.31;5211938;28;20089;-70
2023/02/15 02:12:29;;;;;;;38.22;25.67;;;;;;;2.29;100.00;102722.31;5227919;28;20112;-70
2023/02/15 02:15:01;;;;;;;39.92;24.88;;;;;;;2.24;100.00;102712.06;5232711;28;20120;-70
2023/02/15 02:18:03;;;;;;;37.13;25.15;;;;;;;2.37;100.00;102710.91;5222202;28;20345;-70
2023/02/15 02:20:55;;;;;;;37.97;25.35;;;;;;;2.47;100.00;102709.00;5225086;28;20033;-70
2023/02/15 02:23:43;;;;;;;38.40;26.23;;;;;;;2.26;100.00;102701.69;5225068;28;20040;-70
2023/02/15 02:26:47;;;;;;;37.38;26.40;;;;;;;2.42;100.00;102710.81;5229340;28;20033;-70
2023/02/15 02:29:50;;;;;;;38.95;25.70;;;;;;;2.29;100.00;102709.38;5209197;28;20064;-70
2023/02/15 02:32:31;;;;;;;37.33;25.60;;;;;;;2.17;100.00;102692.38;5225815;28;20072;-70
2023/02/15 02:35:16;;;;;;;38.10;24.10;;;;;;;2.31;100.00;102692.97;5227803;28;20508;-70
2023/02/15 02:38:10;;;;;;;36.03;25.05;;;;;;;2.21;100.00;102693.16;5208145;28;20058;-70
2023/02/15 02:40:53;;;;;;;36.22;24.25;;;;;;;2.25;100.00;102693.06;5227344;28;20124;-70
2023/02/15 02:43:31;;;;;;;;;;;;;;;2.71;100.00;102691.25;5192502;28;20032;-71
2023/02/15 02:46:11;;;;;;;35.08;24.10;;;;;;;2.22;100.00;102692.28;5226386;28;20366;-70
2023/02/15 02:48:43;;;;;;;35.88;23.88;;;;;;;2.01;100.00;102678.91;5224171;28;20172;-70
2023/02/15 02:51:21;;;;;;;36.92;24.55;;;;;;;2.01;100.00;102678.03;5226925;28;20116;-70
2023/02/15 02:53:56;;;;;;;37.55;24.25;;;;;;;2.04;100.00;102681.41;5230491;28;20063;-70
2023/02/15 02:56:33;;;;;;;42.22;25.77;;;;;;;2.00;100.00;102678.91;5222927;28;20100;-70
2023/02/15 02:59:11;;;;;;;38.75;25.05;;;;;;;2.03;100.00;102684.88;5227352;28;20068;-70
2023/02/15 03:02:03;;;;;;;38.53;24.58;;;;;;;2.15;100.00;102676.03;5223238;28;20417;-70
2023/02/15 03:04:39;;;;;;;34.40;23.92;;;;;;;1.97;100.00;102671.22;5224492;28;20491;-70
2023/02/15 03:07:21;;;;;;;34.85;24.23;;;;;;;2.03;100.00;102671.13;5223573;28;20566;-70
2023/02/15 03:09:56;;;;;;;36.92;24.27;;;;;;;1.95;100.00;102663.50;5224203;28;20025;-70
2023/02/15 03:12:31;;;;;;;35.63;24.70;;;;;;;1.87;100.00;102660.22;5221624;28;20474;-70
2023/02/15 03:15:14;;;;;;;36.67;24.95;;;;;;;2.00;100.00;102663.41;5207695;28;20029;-70
2023/02/15 03:17:52;;;;;;;38.25;24.33;;;;;;;1.91;100.00;102661.88;5223982;28;20029;-71
2023/02/15 03:20:31;;;;;;;35.20;24.25;;;;;;;1.87;100.00;102658.50;5221650;28;20030;-70
2023/02/15 03:33:57;;;;;;;34.63;23.33;;;;;;;2.06;100.00;102638.28;5220748;28;20045;-70
2023/02/15 03:36:41;;;;;;;34.97;24.45;;;;;;;1.93;100.00;102636.81;5222672;28;20025;-70
2023/02/15 03:39:28;;;;;;;36.47;23.00;;;;;;;1.92;100.00;102645.47;5222349;28;20026;-70
2023/02/15 03:42:33;;;;;;;35.28;23.90;;;;;;;2.02;100.00;102646.16;5225254;28;20036;-70
2023/02/15 03:45:10;;;;;;;37.75;23.67;;;;;;;1.79;100.00;102637.13;5224162;28;20056;-71
2023/02/15 03:47:46;;;;;;;34.38;24.15;;;;;;;1.77;100.00;102640.59;5224103;28;20029;-71
2023/02/15 03:53:20;;;;;;;33.85;23.75;;;;;;;1.77;100.00;102641.44;5225383;28;20042;-70
2023/02/15 03:55:55;;;;;;;36.25;23.75;;;;;;;1.73;100.00;102620.88;5222753;28;20073;-70
2023/02/15 04:04:20;;;;;;;32.55;22.38;;;;;;;1.72;100.00;102634.69;5225602;28;20033;-70
2023/02/15 04:06:51;;;;;;;32.28;22.85;;;;;;;1.60;100.00;102634.03;5221951;28;20030;-70
2023/02/15 04:12:13;;;;;;;31.50;21.88;;;;;;;1.77;100.00;102632.84;5226356;28;20041;-70
2023/02/15 04:17:36;;;;;;;30.80;21.65;;;;;;;1.66;100.00;102628.72;5227558;28;20033;-70
2023/02/15 04:25:48;;;;;;;30.50;20.67;;;;;;;1.56;100.00;102637.56;5220217;28;20486;-70
2023/02/15 04:28:19;;;;;;;34.30;21.90;;;;;;;1.57;100.00;102638.41;5227641;28;20021;-70
2023/02/15 04:30:50;;;;;;;30.95;21.27;;;;;;;1.61;100.00;102633.13;5222643;28;20032;-70
2023/02/15 04:33:22;;;;;;;32.13;21.35;;;;;;;1.56;100.00;102623.78;5223140;28;20049;-70
2023/02/15 04:35:53;;;;;;;32.53;21.60;;;;;;;1.52;100.00;102633.31;5223884;28;20253;-70
2023/02/15 04:38:24;;;;;;;31.10;20.40;;;;;;;1.48;100.00;102630.78;5229194;28;20029;-70
2023/02/15 04:40:55;;;;;;;31.65;21.33;;;;;;;1.42;100.00;102632.63;5220951;28;20056;-70
2023/02/15 04:43:27;;;;;;;32.15;20.75;;;;;;;1.42;100.00;102624.03;5224935;28;20390;-70
2023/02/15 04:45:58;;;;;;;30.13;21.77;;;;;;;1.42;100.00;102627.47;5224841;28;20103;-70
2023/02/15 04:48:30;;;;;;;32.42;20.92;;;;;;;1.39;100.00;102626.66;5219687;28;20045;-70
2023/02/15 04:51:09;;;;;;;30.20;20.58;;;;;;;1.46;100.00;102612.75;5223087;28;20033;-70
2023/02/15 04:53:40;;;;;;;31.48;20.85;;;;;;;1.34;100.00;102619.00;5227433;28;20051;-72
2023/02/15 04:56:11;;;;;;;30.23;21.63;;;;;;;1.33;100.00;102608.72;5248169;23;20136;-77
2023/02/15 04:58:43;;;;;;;31.98;20.90;;;;;;;1.31;100.00;102607.88;5244266;28;20032;-77
2023/02/15 05:01:14;;;;;;;35.83;22.48;;;;;;;1.23;100.00;102584.78;5242958;28;20064;-78
2023/02/15 05:03:46;;;;;;;33.70;21.23;;;;;;;1.30;100.00;102601.88;5244001;28;20040;-77
2023/02/15 05:06:17;;;;;;;29.63;20.98;;;;;;;1.30;100.00;102603.59;5241852;28;20025;-78
2023/02/15 05:08:48;;;;;;;30.55;21.50;;;;;;;1.30;100.00;102586.38;5247036;28;20082;-76
2023/02/15 05:11:20;;;;;;;33.30;21.02;;;;;;;1.34;100.00;102593.19;5228669;28;20021;-76
2023/02/15 05:13:51;;;;;;;28.88;21.02;;;;;;;1.16;100.00;102572.84;5224123;28;20025;-76
2023/02/15 05:16:22;;;;;;;34.75;21.98;;;;;;;1.31;100.00;102598.41;5227106;28;20091;-76
2023/02/15 05:18:54;;;;;;;32.15;21.73;;;;;;;1.29;100.00;102604.44;5244494;28;20115;-76
2023/02/15 05:21:25;;;;;;;33.95;19.98;;;;;;;1.28;100.00;102602.75;5240978;28;20478;-76
2023/02/15 05:23:56;;;;;;;30.83;21.30;;;;;;;1.29;100.00;102601.88;5243525;28;20029;-76
2023/02/15 05:29:17;;;;;;;28.30;20.55;;;;;;;1.25;100.00;102600.22;5245263;28;20025;-76
2023/02/15 05:31:49;;;;;;;29.02;20.30;;;;;;;1.27;100.00;102606.22;5241653;28;20029;-76
2023/02/15 05:34:20;;;;;;;30.10;20.88;;;;;;;1.28;100.00;102598.44;5246583;28;20028;-76
2023/02/15 05:36:51;;;;;;;29.48;21.00;;;;;;;1.32;100.00;102599.25;5241866;28;20029;-76
2023/02/15 05:39:22;;;;;;;29.63;20.50;;;;;;;1.33;100.00;102591.50;5244753;28;20024;-76
2023/02/15 05:41:54;;;;;;;31.52;20.73;;;;;;;1.34;100.00;102593.19;5224616;28;20058;-76
2023/02/15 05:44:27;;;;;;;30.73;20.70;;;;;;;1.37;100.00;102580.22;5242623;28;20040;-76
2023/02/15 05:46:59;;;;;;;30.65;21.00;;;;;;;1.32;100.00;102589.75;5242658;28;20064;-76
2023/02/15 05:49:30;;;;;;;32.58;20.70;;;;;;;1.30;100.00;102595.84;5241207;28;20163;-76
2023/02/15 05:52:03;;;;;;;30.20;21.13;;;;;;;1.24;100.00;102595.94;5244765;28;21145;-76
2023/02/15 05:54:34;;;;;;;31.52;20.77;;;;;;;1.28;100.00;102593.28;5241985;28;20498;-76
2023/02/15 05:57:05;;;;;;;30.85;21.27;;;;;;;1.25;100.00;102597.66;5242712;28;20103;-76
2023/02/15 05:59:37;;;;;;;27.98;19.13;;;;;;;1.23;100.00;102594.25;5247143;28;20028;-76
2023/02/15 06:02:09;;;;;;;29.23;20.33;;;;;;;1.19;100.00;102591.72;5235608;28;20514;-76
2023/02/15 06:04:40;;;;;;;30.25;20.00;;;;;;;1.17;100.00;102595.19;5239363;28;20132;-76
2023/02/15 06:07:12;;;;;;;31.10;20.20;;;;;;;1.21;100.00;102591.69;5245136;28;20965;-76
2023/02/15 06:09:43;;;;;;;28.17;20.17;;;;;;;1.14;100.00;102584.94;5241255;28;20459;-76
2023/02/15 06:12:14;;;;;;;31.05;21.40;;;;;;;1.18;100.00;102592.59;5246108;28;20480;-76
2023/02/15 06:14:45;;;;;;;27.13;20.67;;;;;;;1.18;100.00;102596.94;5242069;28;20029;-76
2023/02/15 06:17:17;;;;;;;33.95;21.45;;;;;;;1.21;100.00;102596.84;5238822;28;20490;-76
2023/02/15 06:19:48;;;;;;;32.08;21.67;;;;;;;1.29;100.00;102601.88;5238883;28;20398;-76
2023/02/15 06:22:20;;;;;;;34.72;21.92;;;;;;;1.35;100.00;102604.34;5219754;28;20059;-76
2023/02/15 06:24:51;;;;;;;35.83;23.73;;;;;;;1.39;100.00;102600.84;5232788;28;20112;-76
2023/02/15 06:27:22;;;;;;;34.42;22.98;;;;;;;1.37;100.00;102589.69;5235369;28;20137;-76
2023/02/15 06:29:53;;;;;;;36.13;22.95;;;;;;;1.52;100.00;102599.75;5242937;28;20032;-76
2023/02/15 06:32:25;;;;;;;35.35;22.35;;;;;;;1.49;100.00;102602.38;5245259;28;20103;-76
2023/02/15 06:34:56;;;;;;;35.83;23.92;;;;;;;1.56;100.00;102598.81;5241660;28;20038;-76
2023/02/15 06:37:27;;;;;;;33.05;23.48;;;;;;;1.60;100.00;102595.28;5246763;28;20025;-76
2023/02/15 06:39:59;;;;;;;30.80;21.67;;;;;;;1.63;100.00;102595.22;5240410;28;20120;-76
2023/02/15 06:42:30;;;;;;;33.22;21.67;;;;;;;1.60;100.00;102594.44;5240777;28;20085;-76
2023/02/15 06:45:01;;;;;;;33.25;22.00;;;;;;;1.63;100.00;102589.19;5239155;28;20056;-76
2023/02/15 06:47:33;;;;;;;35.88;22.13;;;;;;;1.62;100.00;102593.50;5239884;28;20040;-76
2023/02/15 06:50:05;;;;;;;37.45;23.35;;;;;;;1.50;100.00;102570.50;5236784;28;20175;-76
2023/02/15 06:52:36;;;;;;;37.78;22.73;;;;;;;1.65;100.00;102585.69;5240468;28;20029;-76
2023/02/15 06:55:07;;;;;;;34.35;23.45;;;;;;;1.66;100.00;102574.47;5242119;28;20048;-76
2023/02/15 06:57:39;;;;;;;34.63;22.83;;;;;;;1.76;100.00;102571.72;5245674;28;20553;-76
2023/02/15 07:00:11;;;;;;;35.80;22.80;;;;;;;1.74;100.00;102570.88;5239917;28;20510;-76
2023/02/15 07:02:42;;;;;;;40.78;25.30;;;;;;;1.79;100.00;102574.25;5227156;28;20029;-76
2023/02/15 07:05:13;;;;;;;55.45;27.27;;;;;;;1.90;100.00;102575.72;5242617;28;20032;-76
2023/02/15 07:07:45;;;;;;;42.03;26.15;;;;;;;1.96;100.00;102569.56;5224617;28;20421;-76
2023/02/15 07:10:16;;;;;;;39.05;25.55;;;;;;;1.97;100.00;102570.41;5243884;28;20431;-76
2023/02/15 07:12:48;;;;;;;35.50;25.15;;;;;;;1.96;100.00;102561.81;5245150;28;20407;-76
2023/02/15 07:15:22;;;;;;;37.88;24.42;;;;;;;2.05;100.00;102566.81;5241731;28;20030;-76
2023/02/15 07:17:54;;;;;;;38.22;24.27;;;;;;;2.03;100.00;102568.56;5243095;28;20038;-76
2023/02/15 07:20:25;;;;;;;42.03;26.52;;;;;;;2.06;100.00;102565.91;5239640;28;20025;-76
2023/02/15 07:22:57;;;;;;;37.08;25.20;;;;;;;1.98;100.00;102543.72;5246489;28;20024;-76
2023/02/15 07:25:28;;;;;;;39.05;24.55;;;;;;;2.13;100.00;102558.88;5243156;28;20494;-76
2023/02/15 07:28:01;;;;;;;37.72;24.85;;;;;;;2.18;100.00;102557.88;5245108;28;20036;-75
2023/02/15 07:30:33;;;;;;;39.00;25.83;;;;;;;2.21;100.00;102558.72;5224352;28;20028;-76
2023/02/15 07:35:57;;;;;;;37.28;24.77;;;;;;;2.30;100.00;102553.31;5241459;28;20033;-75
2023/02/15 07:38:35;;;;;;;37.53;26.35;;;;;;;2.39;100.00;102553.13;5245452;28;20037;-75
2023/02/15 07:41:11;;;;;;;43.70;26.65;;;;;;;2.37;100.00;102541.94;5244530;28;20458;-76
2023/02/15 07:43:44;;;;;;;42.67;26.65;;;;;;;2.46;100.00;102556.41;5235012;28;20040;-75
2023/02/15 07:46:17;;;;;;;44.38;26.08;;;;;;;2.50;100.00;102553.72;5244578;28;20402;-76
2023/02/15 07:48:48;;;;;;;38.03;26.40;;;;;;;2.55;100.00;102551.03;5241647;28;20044;-75
2023/02/15 07:51:20;;;;;;;39.90;26.20;;;;;;;2.61;100.00;102548.25;5241699;28;20025;-76
2023/02/15 07:53:51;;;;;;;38.42;27.20;;;;;;;2.65;100.00;102545.59;5241565;28;20021;-75
2023/02/15 07:56:22;;;;;;;40.75;25.00;;;;;;;2.67;100.00;102542.97;5238532;28;20053;-75
2023/02/15 07:58:55;;;;;;;37.05;25.38;;;;;;;2.74;100.00;102552.28;5222558;28;20029;-76
2023/02/15 08:01:32;;;;;;;39.15;26.75;;;;;;;2.83;100.00;102541.69;5239665;28;20094;-76
2023/02/15 08:04:05;;;;;;;36.97;26.38;;;;;;;2.83;100.00;102548.59;5239410;28;20057;-76
2023/02/15 08:06:37;;;;;;;;;;;;;;;3.37;100.00;102548.03;5238155;28;20025;-76
2023/02/15 08:09:09;;;;;;;40.55;26.65;;;;;;;2.99;100.00;102549.91;5242312;28;19916;-75
2023/02/15 08:11:40;;;;;;;37.38;25.85;;;;;;;2.99;100.00;102536.09;5242331;28;20025;-76
2023/02/15 08:14:14;;;;;;;41.38;27.77;;;;;;;3.11;100.00;102541.00;5241958;28;20030;-74
2023/02/15 08:16:48;;;;;;;41.55;27.70;;;;;;;3.17;100.00;102531.28;5243670;28;20033;-75
2023/02/15 08:19:28;;;;;;;45.90;28.10;;;;;;;3.31;100.00;102540.44;5246960;28;20024;-75
2023/02/15 08:22:03;;;;;;;42.08;27.23;;;;;;;3.33;100.00;102543.81;5244556;28;20124;-75
2023/02/15 08:24:36;;;;;;;40.22;27.77;;;;;;;3.39;100.00;102547.09;5241933;28;20057;-75
2023/02/15 08:27:10;;;;;;;37.35;26.60;;;;;;;3.45;100.00;102542.63;5242248;28;20025;-75
2023/02/15 08:29:42;;;;;;;44.92;27.02;;;;;;;3.52;100.00;102541.59;5240367;28;20029;-75
2023/02/15 08:32:13;;;;;;;38.55;26.60;;;;;;;3.60;100.00;102547.41;5242227;28;20445;-75
2023/02/15 08:34:44;;;;;;;39.63;28.02;;;;;;;3.66;100.00;102535.13;5229047;28;20091;-75
2023/02/15 08:37:16;;;;;;;43.83;27.98;;;;;;;3.79;100.00;102538.22;5244022;28;20097;-75
2023/02/15 08:39:47;;;;;;;38.83;26.60;;;;;;;3.90;100.00;102543.06;5239968;28;20026;-75
2023/02/15 08:42:20;;;;;;;37.08;27.52;;;;;;;3.99;100.00;102542.81;5245380;28;20022;-75
2023/02/15 08:44:51;;;;;;;41.83;27.45;;;;;;;4.09;100.00;102536.47;5240962;28;20451;-75
2023/02/15 08:47:23;;;;;;;39.08;26.73;;;;;;;4.17;100.00;102530.16;5239528;28;20100;-75
2023/02/15 08:49:55;;;;;;;45.35;29.42;;;;;;;4.23;100.00;102536.00;5240225;28;20037;-75
2023/02/15 08:52:26;;;;;;;43.73;29.23;;;;;;;4.33;100.00;102531.41;5243458;28;20028;-75
2023/02/15 08:54:58;;;;;;;36.28;26.50;;;;;;;4.39;100.00;102521.69;5240796;28;20507;-75
2023/02/15 08:57:29;;;;;;;40.65;28.73;;;;;;;4.48;100.00;102523.13;5237986;28;20108;-75
2023/02/15 09:00:04;;;;;;;37.60;28.35;;;;;;;4.57;100.00;102525.41;5242782;28;20036;-75
2023/02/15 09:02:36;;;;;;;39.95;27.58;;;;;;;4.68;100.00;102527.66;5240033;28;20033;-74
2023/02/15 09:05:08;;;;;;;39.95;28.98;;;;;;;4.76;100.00;102524.81;5236697;28;20903;-75
2023/02/15 09:07:39;;;;;;;41.88;29.63;;;;;;;4.81;100.00;102523.75;5244068;28;21095;-74
2023/02/15 09:10:10;;;;;;;39.55;29.00;;;;;;;4.89;100.00;102518.31;5243761;28;20052;-75
2023/02/15 09:12:41;;;;;;;37.45;27.90;;;;;;;4.95;100.00;102522.44;5245965;28;20030;-75
2023/02/15 09:15:13;;;;;;;34.90;26.55;;;;;;;5.01;100.00;102517.03;5245221;28;20029;-76
2023/02/15 09:17:44;;;;;;;35.72;26.17;;;;;;;5.08;100.00;102503.78;5242285;28;20039;-75
2023/02/15 09:20:16;;;;;;;38.42;27.42;;;;;;;5.13;100.00;102501.84;5246671;28;20029;-75
2023/02/15 09:22:47;;;;;;;37.72;27.95;;;;;;;5.28;100.00;102507.41;5230446;28;20035;-75
2023/02/15 09:25:19;;;;;;;37.72;27.17;;;;;;;5.30;100.00;102490.88;5247839;28;20026;-75
2023/02/15 09:27:50;;;;;;;38.33;28.00;;;;;;;5.48;100.00;102498.88;5245325;28;20029;-72
2023/02/15 09:30:22;;;;;;;41.78;26.40;;;;;;;5.57;100.00;102494.22;5244831;28;20025;-74
2023/02/15 09:32:53;;;;;;;35.92;27.23;;;;;;;5.69;100.00;102492.06;5250564;28;20112;-75
2023/02/15 09:35:24;;;;;;;35.63;25.58;;;;;;;5.82;100.00;102488.06;5234290;28;20580;-74
2023/02/15 09:37:56;;;;;;;40.05;27.30;;;;;;;5.89;100.00;102489.53;5238195;28;20035;-75
2023/02/15 09:40:40;;;;;;;40.47;27.70;;;;;;;6.03;100.00;102486.44;5242950;28;20040;-75
2023/02/15 09:43:41;;;;;;;39.45;25.63;;;;;;;6.28;100.00;102489.72;5242121;28;20103;-75
2023/02/15 09:46:34;;;;;;;38.58;25.90;;;;;;;6.32;100.00;102493.06;5241666;28;20045;-75
2023/02/15 09:49:32;;;;;;;36.13;26.88;;;;;;;6.34;100.00;102494.69;5231161;28;20033;-75
2023/02/15 09:52:34;;;;;;;36.15;26.23;;;;;;;6.61;100.00;102504.03;5227570;28;20026;-75
2023/02/15 09:55:06;;;;;;;36.55;26.25;;;;;;;6.55;100.00;102499.91;5247554;28;20071;-75
2023/02/15 09:58:09;;;;;;;38.20;26.73;;;;;;;6.74;100.00;102502.59;5238705;28;20033;-75
2023/02/15 10:01:04;;;;;;;34.50;25.48;;;;;;;6.99;100.00;102500.66;5234590;28;20057;-75
2023/02/15 10:04:04;;;;;;;37.15;26.80;;;;;;;7.09;100.00;102505.50;5237701;28;20026;-75
2023/02/15 10:06:46;;;;;;;36.55;26.13;;;;;;;7.13;100.00;102507.03;5242787;28;20073;-76
2023/02/15 10:09:56;;;;;;;37.33;25.52;;;;;;;7.35;100.00;102504.31;5238481;28;20033;-76
2023/02/15 10:12:54;;;;;;;35.10;24.88;;;;;;;7.52;100.00;102499.19;5222647;28;20387;-75
2023/02/15 10:15:44;;;;;;;32.70;23.50;;;;;;;7.72;100.00;102516.53;5241401;28;20022;-76
2023/02/15 10:18:38;;;;;;;34.03;25.08;;;;;;;7.77;100.00;102501.53;5244912;28;20355;-76
2023/02/15 10:21:20;;;;;;;31.88;22.95;;;;;;;7.88;100.00;102509.72;5235517;28;20021;-76
2023/02/15 10:24:10;;;;;;;34.60;24.67;;;;;;;8.04;100.00;102507.22;5230542;28;20029;-75
2023/02/15 10:26:46;;;;;;;30.63;24.00;;;;;;;8.18;100.00;102511.75;5246269;28;20033;-75
2023/02/15 10:29:30;;;;;;;34.78;23.98;;;;;;;8.36;100.00;102513.50;5244958;28;20493;-75
2023/02/15 10:32:24;;;;;;;31.60;23.13;;;;;;;8.62;100.00;102514.84;5247599;28;20021;-76
2023/02/15 10:35:18;;;;;;;32.30;23.08;;;;;;;8.71;100.00;102514.41;5245420;28;20547;-75
2023/02/15 10:38:17;;;;;;;30.83;23.85;;;;;;;8.64;100.00;102505.19;5243160;28;20074;-76
2023/02/15 10:41:16;;;;;;;31.55;23.25;;;;;;;9.06;100.00;102495.22;5223764;28;20025;-76
2023/02/15 10:44:02;;;;;;;30.73;23.55;;;;;;;8.96;100.00;102497.47;5239596;28;20036;-76
2023/02/15 10:47:00;;;;;;;33.03;22.80;;;;;;;9.37;100.00;102495.31;5244013;28;20091;-76
2023/02/15 10:49:38;;;;;;;30.75;22.98;;;;;;;9.35;100.00;102494.53;5241060;28;20103;-76
2023/02/15 10:52:29;;;;;;;30.92;21.70;;;;;;;9.69;100.00;102492.69;5223095;28;20056;-76
2023/02/15 10:55:26;;;;;;;31.10;21.65;;;;;;;9.69;100.00;102480.47;5244668;28;20631;-76
2023/02/15 10:58:05;;;;;;;30.45;22.10;;;;;;;9.92;100.00;102494.06;5224150;28;20051;-76
2023/02/15 11:00:59;;;;;;;31.63;21.55;;;;;;;10.13;100.00;102485.00;5237313;28;20033;-76
2023/02/15 11:03:54;;;;;;;30.75;20.80;;;;;;;10.23;100.00;102474.84;5221524;28;20017;-76
2023/02/15 11:06:27;;;;;;;29.77;21.02;;;;;;;10.35;100.00;102471.56;5242832;28;20540;-77
2023/02/15 11:09:05;;;;;;;31.55;20.88;;;;;;;10.44;100.00;102480.66;5242081;28;20686;-78
2023/02/15 11:11:44;;;;;;;32.05;21.75;;;;;;;10.61;100.00;102471.81;5245752;28;20020;-77
2023/02/15 11:14:27;;;;;;;27.85;20.90;;;;;;;10.67;100.00;102463.56;5240068;28;20573;-77
2023/02/15 11:17:12;;;;;;;31.05;20.80;;;;;;;10.89;100.00;102471.84;5240575;28;20037;-77
2023/02/15 11:19:55;;;;;;;29.88;20.83;;;;;;;10.83;100.00;102477.44;5242164;28;20029;-78
2023/02/15 11:22:26;;;;;;;28.48;21.23;;;;;;;10.98;100.00;102469.59;5242304;28;20046;-77
2023/02/15 11:25:00;;;;;;;29.75;21.30;;;;;;;11.02;100.00;102465.84;5242749;28;20395;-77
2023/02/15 11:27:35;;;;;;;30.55;21.85;;;;;;;11.02;100.00;102465.84;5223353;28;20032;-77
2023/02/15 11:30:24;;;;;;;29.15;20.23;;;;;;;11.38;100.00;102463.59;5245045;28;20421;-77
2023/02/15 11:32:58;;;;;;;29.10;20.60;;;;;;;11.36;100.00;102460.22;5246829;28;20036;-77
2023/02/15 11:35:36;;;;;;;27.80;20.58;;;;;;;11.36;100.00;102448.88;5245097;28;20033;-77
2023/02/15 11:38:16;;;;;;;29.75;20.75;;;;;;;11.49;100.00;102425.34;5238195;28;20416;-78
2023/02/15 11:41:10;;;;;;;27.00;20.33;;;;;;;11.63;100.00;102438.41;5241966;28;20406;-80
2023/02/15 11:43:51;;;;;;;;;;;;;;;12.32;100.00;102436.59;5239950;28;20028;-76
2023/02/15 11:46:22;;;;;;;32.58;21.30;;;;;;;12.13;100.00;102426.47;5242222;28;20651;-78
2023/02/15 11:48:54;;;;;;;29.08;21.40;;;;;;;12.12;100.00;102427.38;5226805;28;20119;-77
2023/02/15 11:51:28;;;;;;;29.38;21.10;;;;;;;12.31;100.00;102427.88;5244208;28;20041;-77
2023/02/15 11:54:02;;;;;;;29.98;21.30;;;;;;;12.22;100.00;102425.84;5241477;28;20485;-77
2023/02/15 11:56:34;;;;;;;29.33;21.70;;;;;;;12.41;100.00;102421.03;5240208;28;20048;-77
2023/02/15 11:59:21;;;;;;;31.07;22.90;;;;;;;12.62;100.00;102415.28;5243761;28;20056;-80
2023/02/15 12:01:52;;;;;;;30.38;21.42;;;;;;;12.53;100.00;102406.22;5243650;28;20035;-77
2023/02/15 12:04:33;;;;;;;31.17;21.23;;;;;;;12.77;100.00;102414.22;5240813;28;20021;-77
2023/02/15 12:07:18;;;;;;;30.30;22.30;;;;;;;12.96;100.00;102423.47;5241921;28;20490;-77
2023/02/15 12:09:56;;;;;;;27.65;20.10;;;;;;;13.04;98.23;102408.84;5244422;28;20163;-78
2023/02/15 12:12:29;;;;;;;29.98;20.35;;;;;;;13.09;94.94;102404.06;5239987;28;20112;-77
2023/02/15 12:15:09;;;;;;;30.58;20.95;;;;;;;13.19;95.67;102398.19;5241875;28;20056;-78
2023/02/15 12:17:50;;;;;;;30.52;20.58;;;;;;;13.26;92.68;102394.16;5244538;28;20090;-77
2023/02/15 12:20:29;;;;;;;30.92;20.17;;;;;;;13.05;93.98;102391.25;5241154;28;20059;-78
2023/02/15 12:23:11;;;;;;;33.03;21.45;;;;;;;13.18;95.19;102380.69;5243587;28;20025;-78
2023/02/15 12:25:55;;;;;;;27.98;20.65;;;;;;;13.27;95.55;102380.91;5237974;28;20034;-77
2023/02/15 12:28:51;;;;;;;29.35;20.80;;;;;;;13.34;92.40;102383.97;5244018;28;20025;-77